sensor_id;sensor_type;location;lat;lon;timestamp;P1;durP1;ratioP1;P2;durP2;ratioP2
33367;SDS011;19724;51.114;13.906;2023-02-28T00:00:33;13.18;;;8.75;;
33367;SDS011;19724;51.114;13.906;2023-02-28T00:02:59;15.35;;;8.00;;
33367;SDS011;19724;51.114;13.906;2023-02-28T00:05:25;14.52;;;8.40;;
33367;SDS011;19724;51.114;13.906;2023-02-28T00:07:52;11.95;;;7.57;;
33367;SDS011;19724;51.114;13.906;2023-02-28T00:10:21;14.45;;;7.18;;
33367;SDS011;19724;51.114;13.906;2023-02-28T00:12:50;15.05;;;6.70;;
33367;SDS011;19724;51.114;13.906;2023-02-28T00:15:16;11.50;;;6.40;;
33367;SDS011;19724;51.114;13.906;2023-02-28T00:17:43;10.02;;;6.75;;
33367;SDS011;19724;51.114;13.906;2023-02-28T00:20:09;12.00;;;7.13;;
33367;SDS011;19724;51.114;13.906;2023-02-28T00:22:40;13.27;;;7.40;;
33367;SDS011;19724;51.114;13.906;2023-02-28T00:25:09;10.98;;;6.93;;
33367;SDS011;19724;51.114;13.906;2023-02-28T00:27:36;13.38;;;7.88;;
33367;SDS011;19724;51.114;13.906;2023-02-28T00:30:03;13.43;;;7.28;;
33367;SDS011;19724;51.114;13.906;2023-02-28T00:32:30;15.27;;;7.85;;
33367;SDS011;19724;51.114;13.906;2023-02-28T00:34:55;15.38;;;7.75;;
33367;SDS011;19724;51.114;13.906;2023-02-28T00:37:21;15.32;;;8.20;;
33367;SDS011;19724;51.114;13.906;2023-02-28T00:39:47;14.40;;;8.60;;
33367;SDS011;19724;51.114;13.906;2023-02-28T00:42:12;13.48;;;7.38;;
33367;SDS011;19724;51.114;13.906;2023-02-28T00:44:38;11.38;;;7.10;;
33367;SDS011;19724;51.114;13.906;2023-02-28T00:47:03;12.60;;;6.97;;
33367;SDS011;19724;51.114;13.906;2023-02-28T00:49:29;12.23;;;7.43;;
33367;SDS011;19724;51.114;13.906;2023-02-28T00:51:54;13.13;;;7.60;;
33367;SDS011;19724;51.114;13.906;2023-02-28T00:54:20;13.93;;;8.38;;
33367;SDS011;19724;51.114;13.906;2023-02-28T00:56:47;14.32;;;7.75;;
33367;SDS011;19724;51.114;13.906;2023-02-28T00:59:13;12.02;;;7.30;;
33367;SDS011;19724;51.114;13.906;2023-02-28T01:01:39;14.38;;;7.15;;
33367;SDS011;19724;51.114;13.906;2023-02-28T01:04:05;13.65;;;7.97;;
33367;SDS011;19724;51.114;13.906;2023-02-28T01:06:31;12.20;;;7.07;;
33367;SDS011;19724;51.114;13.906;2023-02-28T01:08:56;13.63;;;8.35;;
33367;SDS011;19724;51.114;13.906;2023-02-28T01:11:22;10.80;;;7.07;;
33367;SDS011;19724;51.114;13.906;2023-02-28T01:13:48;12.05;;;7.13;;
33367;SDS011;19724;51.114;13.906;2023-02-28T01:16:13;13.30;;;7.90;;
33367;SDS011;19724;51.114;13.906;2023-02-28T01:18:39;10.25;;;7.05;;
33367;SDS011;19724;51.114;13.906;2023-02-28T01:21:05;11.13;;;6.85;;
33367;SDS011;19724;51.114;13.906;2023-02-28T01:23:36;14.02;;;8.23;;
33367;SDS011;19724;51.114;13.906;2023-02-28T01:26:08;15.35;;;8.50;;
33367;SDS011;19724;51.114;13.906;2023-02-28T01:31:02;13.05;;;7.20;;
33367;SDS011;19724;51.114;13.906;2023-02-28T01:33:27;14.48;;;8.02;;
33367;SDS011;19724;51.114;13.906;2023-02-28T01:36:00;13.02;;;8.07;;
33367;SDS011;19724;51.114;13.906;2023-02-28T01:38:37;15.18;;;8.15;;
33367;SDS011;19724;51.114;13.906;2023-02-28T01:41:03;12.13;;;7.78;;
33367;SDS011;19724;51.114;13.906;2023-02-28T01:43:31;12.07;;;7.13;;
33367;SDS011;19724;51.114;13.906;2023-02-28T01:46:17;14.15;;;8.05;;
33367;SDS011;19724;51.114;13.906;2023-02-28T01:48:51;13.63;;;7.63;;
33367;SDS011;19724;51.114;13.906;2023-02-28T01:51:32;11.90;;;7.78;;
33367;SDS011;19724;51.114;13.906;2023-02-28T01:54:16;15.15;;;7.80;;
33367;SDS011;19724;51.114;13.906;2023-02-28T01:56:47;13.45;;;8.05;;
33367;SDS011;19724;51.114;13.906;2023-02-28T01:59:35;16.88;;;8.95;;
33367;SDS011;19724;51.114;13.906;2023-02-28T02:02:11;15.77;;;8.93;;
33367;SDS011;19724;51.114;13.906;2023-02-28T02:04:49;17.00;;;9.13;;
33367;SDS011;19724;51.114;13.906;2023-02-28T02:07:28;13.30;;;8.45;;
33367;SDS011;19724;51.114;13.906;2023-02-28T02:10:16;14.15;;;9.23;;
33367;SDS011;19724;51.114;13.906;2023-02-28T02:13:20;14.32;;;8.48;;
33367;SDS011;19724;51.114;13.906;2023-02-28T02:24:54;14.05;;;7.95;;
33367;SDS011;19724;51.114;13.906;2023-02-28T02:30:42;12.35;;;7.88;;
33367;SDS011;19724;51.114;13.906;2023-02-28T02:33:27;14.48;;;8.77;;
33367;SDS011;19724;51.114;13.906;2023-02-28T02:36:22;18.10;;;9.70;;
33367;SDS011;19724;51.114;13.906;2023-02-28T02:39:06;14.43;;;8.70;;
33367;SDS011;19724;51.114;13.906;2023-02-28T02:41:46;14.02;;;8.50;;
33367;SDS011;19724;51.114;13.906;2023-02-28T02:47:12;14.23;;;7.75;;
33367;SDS011;19724;51.114;13.906;2023-02-28T02:49:43;13.15;;;8.20;;
33367;SDS011;19724;51.114;13.906;2023-02-28T02:52:14;12.40;;;7.78;;
33367;SDS011;19724;51.114;13.906;2023-02-28T02:54:43;11.05;;;7.95;;
33367;SDS011;19724;51.114;13.906;2023-02-28T02:57:13;14.55;;;8.38;;
33367;SDS011;19724;51.114;13.906;2023-02-28T02:59:43;14.82;;;8.55;;
33367;SDS011;19724;51.114;13.906;2023-02-28T03:02:10;13.77;;;8.60;;
33367;SDS011;19724;51.114;13.906;2023-02-28T03:04:40;17.45;;;8.60;;
33367;SDS011;19724;51.114;13.906;2023-02-28T03:07:10;15.88;;;9.10;;
33367;SDS011;19724;51.114;13.906;2023-02-28T03:09:35;16.05;;;8.80;;
33367;SDS011;19724;51.114;13.906;2023-02-28T03:12:00;15.43;;;9.07;;
33367;SDS011;19724;51.114;13.906;2023-02-28T03:14:49;15.13;;;9.23;;
33367;SDS011;19724;51.114;13.906;2023-02-28T03:20:35;13.63;;;8.73;;
33367;SDS011;19724;51.114;13.906;2023-02-28T03:23:16;13.40;;;7.78;;
33367;SDS011;19724;51.114;13.906;2023-02-28T03:25:50;15.55;;;8.27;;
33367;SDS011;19724;51.114;13.906;2023-02-28T03:31:13;12.93;;;7.65;;
33367;SDS011;19724;51.114;13.906;2023-02-28T03:34:09;15.70;;;8.40;;
33367;SDS011;19724;51.114;13.906;2023-02-28T03:36:42;18.45;;;8.93;;
33367;SDS011;19724;51.114;13.906;2023-02-28T03:39:14;14.85;;;7.88;;
33367;SDS011;19724;51.114;13.906;2023-02-28T03:41:52;15.05;;;9.40;;
33367;SDS011;19724;51.114;13.906;2023-02-28T03:44:25;16.40;;;9.52;;
33367;SDS011;19724;51.114;13.906;2023-02-28T03:47:02;16.23;;;8.98;;
33367;SDS011;19724;51.114;13.906;2023-02-28T03:49:38;12.25;;;7.50;;
33367;SDS011;19724;51.114;13.906;2023-02-28T03:52:10;14.80;;;8.93;;
33367;SDS011;19724;51.114;13.906;2023-02-28T03:54:38;15.23;;;9.13;;
33367;SDS011;19724;51.114;13.906;2023-02-28T03:57:18;13.48;;;8.18;;
33367;SDS011;19724;51.114;13.906;2023-02-28T03:59:50;18.25;;;9.15;;
33367;SDS011;19724;51.114;13.906;2023-02-28T04:02:47;14.27;;;7.88;;
33367;SDS011;19724;51.114;13.906;2023-02-28T04:05:17;14.00;;;7.65;;
33367;SDS011;19724;51.114;13.906;2023-02-28T04:07:44;11.77;;;7.70;;
33367;SDS011;19724;51.114;13.906;2023-02-28T04:10:10;15.38;;;8.35;;
33367;SDS011;19724;51.114;13.906;2023-02-28T04:12:36;16.95;;;9.88;;
33367;SDS011;19724;51.114;13.906;2023-02-28T04:15:02;15.18;;;8.48;;
33367;SDS011;19724;51.114;13.906;2023-02-28T04:17:27;18.25;;;10.18;;
33367;SDS011;19724;51.114;13.906;2023-02-28T04:19:53;19.65;;;9.70;;
33367;SDS011;19724;51.114;13.906;2023-02-28T04:22:22;17.50;;;9.57;;
33367;SDS011;19724;51.114;13.906;2023-02-28T04:24:50;18.45;;;9.50;;
33367;SDS011;19724;51.114;13.906;2023-02-28T04:27:16;15.10;;;9.15;;
33367;SDS011;19724;51.114;13.906;2023-02-28T04:29:41;16.00;;;10.43;;
33367;SDS011;19724;51.114;13.906;2023-02-28T04:32:09;19.08;;;9.30;;
33367;SDS011;19724;51.114;13.906;2023-02-28T04:34:35;19.35;;;10.75;;
33367;SDS011;19724;51.114;13.906;2023-02-28T04:37:01;13.40;;;8.27;;
33367;SDS011;19724;51.114;13.906;2023-02-28T04:39:27;17.92;;;9.05;;
33367;SDS011;19724;51.114;13.906;2023-02-28T04:41:54;16.33;;;9.18;;
33367;SDS011;19724;51.114;13.906;2023-02-28T04:44:20;15.82;;;9.90;;
33367;SDS011;19724;51.114;13.906;2023-02-28T04:46:47;21.30;;;9.35;;
33367;SDS011;19724;51.114;13.906;2023-02-28T04:49:13;16.08;;;9.43;;
33367;SDS011;19724;51.114;13.906;2023-02-28T04:51:39;18.20;;;10.25;;
33367;SDS011;19724;51.114;13.906;2023-02-28T04:54:05;16.55;;;9.73;;
33367;SDS011;19724;51.114;13.906;2023-02-28T04:56:30;22.52;;;10.43;;
33367;SDS011;19724;51.114;13.906;2023-02-28T04:58:56;14.52;;;8.93;;
33367;SDS011;19724;51.114;13.906;2023-02-28T05:01:26;16.92;;;11.20;;
33367;SDS011;19724;51.114;13.906;2023-02-28T05:03:54;17.75;;;11.13;;
33367;SDS011;19724;51.114;13.906;2023-02-28T05:06:22;17.95;;;11.27;;
33367;SDS011;19724;51.114;13.906;2023-02-28T05:08:49;17.77;;;10.20;;
33367;SDS011;19724;51.114;13.906;2023-02-28T05:11:21;16.17;;;10.23;;
33367;SDS011;19724;51.114;13.906;2023-02-28T05:13:50;16.42;;;8.52;;
33367;SDS011;19724;51.114;13.906;2023-02-28T05:16:17;17.05;;;9.52;;
33367;SDS011;19724;51.114;13.906;2023-02-28T05:18:43;15.55;;;9.90;;
33367;SDS011;19724;51.114;13.906;2023-02-28T05:21:19;15.52;;;9.32;;
33367;SDS011;19724;51.114;13.906;2023-02-28T05:23:49;15.35;;;10.27;;
33367;SDS011;19724;51.114;13.906;2023-02-28T05:26:15;14.93;;;9.55;;
33367;SDS011;19724;51.114;13.906;2023-02-28T05:28:40;16.73;;;10.27;;
33367;SDS011;19724;51.114;13.906;2023-02-28T05:31:06;17.35;;;10.23;;
33367;SDS011;19724;51.114;13.906;2023-02-28T05:33:32;15.43;;;10.20;;
33367;SDS011;19724;51.114;13.906;2023-02-28T05:35:58;18.65;;;12.20;;
33367;SDS011;19724;51.114;13.906;2023-02-28T05:38:23;20.35;;;10.43;;
33367;SDS011;19724;51.114;13.906;2023-02-28T05:40:49;17.23;;;11.20;;
33367;SDS011;19724;51.114;13.906;2023-02-28T05:43:14;17.52;;;10.90;;
33367;SDS011;19724;51.114;13.906;2023-02-28T05:45:40;16.70;;;9.05;;
33367;SDS011;19724;51.114;13.906;2023-02-28T05:48:05;19.52;;;9.57;;
33367;SDS011;19724;51.114;13.906;2023-02-28T05:50:31;14.35;;;9.68;;
33367;SDS011;19724;51.114;13.906;2023-02-28T05:52:56;16.25;;;9.40;;
33367;SDS011;19724;51.114;13.906;2023-02-28T05:55:22;20.17;;;9.60;;
33367;SDS011;19724;51.114;13.906;2023-02-28T05:57:47;20.35;;;10.60;;
33367;SDS011;19724;51.114;13.906;2023-02-28T06:00:13;16.88;;;10.68;;
33367;SDS011;19724;51.114;13.906;2023-02-28T06:02:40;16.42;;;10.82;;
33367;SDS011;19724;51.114;13.906;2023-02-28T06:05:09;19.23;;;11.82;;
33367;SDS011;19724;51.114;13.906;2023-02-28T06:07:39;17.73;;;11.50;;
33367;SDS011;19724;51.114;13.906;2023-02-28T06:10:05;13.88;;;9.27;;
33367;SDS011;19724;51.114;13.906;2023-02-28T06:12:30;19.23;;;10.27;;
33367;SDS011;19724;51.114;13.906;2023-02-28T06:14:56;15.80;;;10.20;;
33367;SDS011;19724;51.114;13.906;2023-02-28T06:17:21;15.18;;;9.55;;
33367;SDS011;19724;51.114;13.906;2023-02-28T06:19:47;18.92;;;9.85;;
33367;SDS011;19724;51.114;13.906;2023-02-28T06:22:13;19.77;;;10.05;;
33367;SDS011;19724;51.114;13.906;2023-02-28T06:24:38;17.67;;;10.80;;
33367;SDS011;19724;51.114;13.906;2023-02-28T06:27:04;16.48;;;10.93;;
33367;SDS011;19724;51.114;13.906;2023-02-28T06:29:30;20.33;;;11.80;;
33367;SDS011;19724;51.114;13.906;2023-02-28T06:31:57;16.65;;;10.65;;
33367;SDS011;19724;51.114;13.906;2023-02-28T06:34:22;19.63;;;11.20;;
33367;SDS011;19724;51.114;13.906;2023-02-28T06:36:49;17.80;;;11.77;;
33367;SDS011;19724;51.114;13.906;2023-02-28T06:39:15;21.90;;;12.05;;
33367;SDS011;19724;51.114;13.906;2023-02-28T06:41:41;22.38;;;12.55;;
33367;SDS011;19724;51.114;13.906;2023-02-28T06:44:11;24.55;;;12.98;;
33367;SDS011;19724;51.114;13.906;2023-02-28T06:46:40;19.42;;;13.02;;
33367;SDS011;19724;51.114;13.906;2023-02-28T06:49:06;20.88;;;14.48;;
33367;SDS011;19724;51.114;13.906;2023-02-28T06:51:33;24.50;;;15.63;;
33367;SDS011;19724;51.114;13.906;2023-02-28T06:54:00;26.02;;;16.73;;
33367;SDS011;19724;51.114;13.906;2023-02-28T06:56:26;30.13;;;17.90;;
33367;SDS011;19724;51.114;13.906;2023-02-28T06:58:51;29.02;;;17.35;;
33367;SDS011;19724;51.114;13.906;2023-02-28T07:01:20;31.98;;;17.52;;
33367;SDS011;19724;51.114;13.906;2023-02-28T07:03:48;27.55;;;17.20;;
33367;SDS011;19724;51.114;13.906;2023-02-28T07:06:17;26.55;;;16.48;;
33367;SDS011;19724;51.114;13.906;2023-02-28T07:08:47;31.50;;;19.02;;
33367;SDS011;19724;51.114;13.906;2023-02-28T07:11:13;28.15;;;16.88;;
33367;SDS011;19724;51.114;13.906;2023-02-28T07:13:39;25.83;;;18.45;;
33367;SDS011;19724;51.114;13.906;2023-02-28T07:16:05;29.13;;;19.05;;
33367;SDS011;19724;51.114;13.906;2023-02-28T07:18:34;33.13;;;19.77;;
33367;SDS011;19724;51.114;13.906;2023-02-28T07:21:04;32.20;;;18.52;;
33367;SDS011;19724;51.114;13.906;2023-02-28T07:23:31;31.63;;;18.08;;
33367;SDS011;19724;51.114;13.906;2023-02-28T07:25:57;32.15;;;19.10;;
33367;SDS011;19724;51.114;13.906;2023-02-28T07:28:23;29.23;;;18.63;;
33367;SDS011;19724;51.114;13.906;2023-02-28T07:30:49;39.25;;;20.90;;
33367;SDS011;19724;51.114;13.906;2023-02-28T07:33:14;32.13;;;18.33;;
33367;SDS011;19724;51.114;13.906;2023-02-28T07:35:40;32.28;;;20.10;;
33367;SDS011;19724;51.114;13.906;2023-02-28T07:38:06;36.25;;;21.63;;
33367;SDS011;19724;51.114;13.906;2023-02-28T07:40:35;36.63;;;21.65;;
33367;SDS011;19724;51.114;13.906;2023-02-28T07:43:01;32.65;;;20.60;;
33367;SDS011;19724;51.114;13.906;2023-02-28T07:45:28;31.75;;;20.48;;
33367;SDS011;19724;51.114;13.906;2023-02-28T07:47:54;30.58;;;20.00;;
33367;SDS011;19724;51.114;13.906;2023-02-28T07:50:20;38.78;;;22.13;;
33367;SDS011;19724;51.114;13.906;2023-02-28T07:52:46;41.05;;;22.98;;
33367;SDS011;19724;51.114;13.906;2023-02-28T07:55:12;41.90;;;22.92;;
33367;SDS011;19724;51.114;13.906;2023-02-28T07:57:38;43.75;;;25.00;;
33367;SDS011;19724;51.114;13.906;2023-02-28T08:00:05;37.70;;;23.00;;
33367;SDS011;19724;51.114;13.906;2023-02-28T08:02:31;33.60;;;20.98;;
33367;SDS011;19724;51.114;13.906;2023-02-28T08:04:56;41.72;;;22.70;;
33367;SDS011;19724;51.114;13.906;2023-02-28T08:07:22;38.00;;;21.60;;
33367;SDS011;19724;51.114;13.906;2023-02-28T08:09:48;36.63;;;22.40;;
33367;SDS011;19724;51.114;13.906;2023-02-28T08:12:13;36.10;;;21.13;;
33367;SDS011;19724;51.114;13.906;2023-02-28T08:14:39;33.08;;;21.98;;
33367;SDS011;19724;51.114;13.906;2023-02-28T08:17:05;33.55;;;20.10;;
33367;SDS011;19724;51.114;13.906;2023-02-28T08:19:31;37.42;;;20.25;;
33367;SDS011;19724;51.114;13.906;2023-02-28T08:21:57;37.10;;;23.15;;
33367;SDS011;19724;51.114;13.906;2023-02-28T08:24:23;42.05;;;22.67;;
33367;SDS011;19724;51.114;13.906;2023-02-28T08:26:48;35.97;;;20.33;;
33367;SDS011;19724;51.114;13.906;2023-02-28T08:29:14;29.40;;;19.20;;
33367;SDS011;19724;51.114;13.906;2023-02-28T08:31:40;36.95;;;20.15;;
33367;SDS011;19724;51.114;13.906;2023-02-28T08:34:06;28.13;;;16.27;;
33367;SDS011;19724;51.114;13.906;2023-02-28T08:36:33;32.85;;;18.42;;
33367;SDS011;19724;51.114;13.906;2023-02-28T08:38:59;26.90;;;16.17;;
33367;SDS011;19724;51.114;13.906;2023-02-28T08:41:24;27.33;;;14.70;;
33367;SDS011;19724;51.114;13.906;2023-02-28T08:43:50;26.20;;;15.73;;
33367;SDS011;19724;51.114;13.906;2023-02-28T08:46:16;31.48;;;16.63;;
33367;SDS011;19724;51.114;13.906;2023-02-28T08:48:42;27.30;;;15.35;;
33367;SDS011;19724;51.114;13.906;2023-02-28T08:51:10;27.33;;;14.88;;
33367;SDS011;19724;51.114;13.906;2023-02-28T08:53:39;25.88;;;14.48;;
33367;SDS011;19724;51.114;13.906;2023-02-28T08:56:06;28.42;;;12.98;;
33367;SDS011;19724;51.114;13.906;2023-02-28T08:58:36;20.63;;;13.82;;
33367;SDS011;19724;51.114;13.906;2023-02-28T09:01:21;21.90;;;12.02;;
33367;SDS011;19724;51.114;13.906;2023-02-28T09:03:49;31.90;;;16.80;;
33367;SDS011;19724;51.114;13.906;2023-02-28T09:06:16;34.00;;;12.85;;
33367;SDS011;19724;51.114;13.906;2023-02-28T09:08:43;20.13;;;11.80;;
33367;SDS011;19724;51.114;13.906;2023-02-28T09:11:09;28.92;;;13.38;;
33367;SDS011;19724;51.114;13.906;2023-02-28T09:13:35;33.10;;;13.57;;
33367;SDS011;19724;51.114;13.906;2023-02-28T09:16:03;30.75;;;15.10;;
33367;SDS011;19724;51.114;13.906;2023-02-28T09:18:30;21.30;;;12.40;;
33367;SDS011;19724;51.114;13.906;2023-02-28T09:20:56;24.67;;;13.90;;
33367;SDS011;19724;51.114;13.906;2023-02-28T09:23:23;22.80;;;13.13;;
33367;SDS011;19724;51.114;13.906;2023-02-28T09:25:50;23.42;;;11.70;;
33367;SDS011;19724;51.114;13.906;2023-02-28T09:28:17;19.83;;;12.27;;
33367;SDS011;19724;51.114;13.906;2023-02-28T09:30:44;22.08;;;11.05;;
33367;SDS011;19724;51.114;13.906;2023-02-28T09:33:12;23.38;;;12.80;;
33367;SDS011;19724;51.114;13.906;2023-02-28T09:35:38;20.05;;;11.55;;
33367;SDS011;19724;51.114;13.906;2023-02-28T09:38:03;18.08;;;11.10;;
33367;SDS011;19724;51.114;13.906;2023-02-28T09:40:29;16.25;;;10.23;;
33367;SDS011;19724;51.114;13.906;2023-02-28T09:42:56;33.97;;;12.45;;
33367;SDS011;19724;51.114;13.906;2023-02-28T09:45:28;21.00;;;11.82;;
33367;SDS011;19724;51.114;13.906;2023-02-28T09:48:06;17.77;;;12.35;;
33367;SDS011;19724;51.114;13.906;2023-02-28T09:50:41;19.27;;;11.57;;
33367;SDS011;19724;51.114;13.906;2023-02-28T09:53:33;22.70;;;12.18;;
33367;SDS011;19724;51.114;13.906;2023-02-28T09:56:19;19.75;;;11.70;;
33367;SDS011;19724;51.114;13.906;2023-02-28T09:59:01;18.05;;;11.45;;
33367;SDS011;19724;51.114;13.906;2023-02-28T10:01:43;17.65;;;11.75;;
33367;SDS011;19724;51.114;13.906;2023-02-28T10:04:17;20.35;;;11.80;;
33367;SDS011;19724;51.114;13.906;2023-02-28T10:07:01;18.92;;;11.43;;
33367;SDS011;19724;51.114;13.906;2023-02-28T10:09:43;16.67;;;11.38;;
33367;SDS011;19724;51.114;13.906;2023-02-28T10:12:11;24.20;;;11.48;;
33367;SDS011;19724;51.114;13.906;2023-02-28T10:14:38;19.52;;;10.02;;
33367;SDS011;19724;51.114;13.906;2023-02-28T10:17:11;20.25;;;10.90;;
33367;SDS011;19724;51.114;13.906;2023-02-28T10:19:56;16.88;;;10.75;;
33367;SDS011;19724;51.114;13.906;2023-02-28T10:22:34;16.90;;;11.87;;
33367;SDS011;19724;51.114;13.906;2023-02-28T10:25:18;18.40;;;12.00;;
33367;SDS011;19724;51.114;13.906;2023-02-28T10:27:46;21.65;;;11.57;;
33367;SDS011;19724;51.114;13.906;2023-02-28T10:30:12;20.20;;;13.57;;
33367;SDS011;19724;51.114;13.906;2023-02-28T10:32:43;19.88;;;12.15;;
33367;SDS011;19724;51.114;13.906;2023-02-28T10:35:21;19.88;;;13.63;;
33367;SDS011;19724;51.114;13.906;2023-02-28T10:37:56;20.65;;;13.82;;
33367;SDS011;19724;51.114;13.906;2023-02-28T10:42:58;26.02;;;13.52;;
33367;SDS011;19724;51.114;13.906;2023-02-28T10:45:26;23.05;;;13.63;;
33367;SDS011;19724;51.114;13.906;2023-02-28T10:47:56;22.48;;;13.23;;
33367;SDS011;19724;51.114;13.906;2023-02-28T10:50:37;20.50;;;13.65;;
33367;SDS011;19724;51.114;13.906;2023-02-28T10:56:02;20.30;;;13.57;;
33367;SDS011;19724;51.114;13.906;2023-02-28T11:03:59;17.65;;;12.65;;
33367;SDS011;19724;51.114;13.906;2023-02-28T11:06:26;25.17;;;15.05;;
33367;SDS011;19724;51.114;13.906;2023-02-28T11:08:58;22.83;;;12.98;;
33367;SDS011;19724;51.114;13.906;2023-02-28T11:11:28;18.30;;;13.57;;
33367;SDS011;19724;51.114;13.906;2023-02-28T11:14:02;26.95;;;13.48;;
33367;SDS011;19724;51.114;13.906;2023-02-28T11:16:36;17.88;;;12.43;;
33367;SDS011;19724;51.114;13.906;2023-02-28T11:19:03;16.58;;;13.25;;
33367;SDS011;19724;51.114;13.906;2023-02-28T11:21:35;21.63;;;13.75;;
33367;SDS011;19724;51.114;13.906;2023-02-28T11:24:23;22.52;;;13.45;;
33367;SDS011;19724;51.114;13.906;2023-02-28T11:26:49;20.38;;;13.07;;
33367;SDS011;19724;51.114;13.906;2023-02-28T11:29:20;19.55;;;13.63;;
33367;SDS011;19724;51.114;13.906;2023-02-28T11:32:01;19.40;;;13.15;;
33367;SDS011;19724;51.114;13.906;2023-02-28T11:34:34;18.48;;;13.95;;
33367;SDS011;19724;51.114;13.906;2023-02-28T11:37:01;17.40;;;12.00;;
33367;SDS011;19724;51.114;13.906;2023-02-28T11:39:32;19.80;;;13.25;;
33367;SDS011;19724;51.114;13.906;2023-02-28T11:42:07;16.15;;;11.55;;
33367;SDS011;19724;51.114;13.906;2023-02-28T11:44:48;18.73;;;12.85;;
33367;SDS011;19724;51.114;13.906;2023-02-28T11:47:31;20.75;;;13.68;;
33367;SDS011;19724;51.114;13.906;2023-02-28T11:50:07;17.48;;;13.00;;
33367;SDS011;19724;51.114;13.906;2023-02-28T11:53:02;21.05;;;14.00;;
33367;SDS011;19724;51.114;13.906;2023-02-28T11:55:44;29.33;;;15.45;;
33367;SDS011;19724;51.114;13.906;2023-02-28T12:01:28;19.05;;;13.20;;
33367;SDS011;19724;51.114;13.906;2023-02-28T12:10:06;19.35;;;13.40;;
33367;SDS011;19724;51.114;13.906;2023-02-28T12:13:02;22.20;;;12.35;;
33367;SDS011;19724;51.114;13.906;2023-02-28T12:21:18;17.30;;;12.00;;
33367;SDS011;19724;51.114;13.906;2023-02-28T12:27:05;20.70;;;14.45;;
33367;SDS011;19724;51.114;13.906;2023-02-28T12:29:53;21.23;;;12.75;;
33367;SDS011;19724;51.114;13.906;2023-02-28T12:32:29;20.17;;;14.02;;
33367;SDS011;19724;51.114;13.906;2023-02-28T12:40:16;19.38;;;13.13;;
33367;SDS011;19724;51.114;13.906;2023-02-28T12:42:46;22.13;;;15.57;;
33367;SDS011;19724;51.114;13.906;2023-02-28T12:45:25;17.95;;;13.80;;
33367;SDS011;19724;51.114;13.906;2023-02-28T12:48:04;24.98;;;15.57;;
33367;SDS011;19724;51.114;13.906;2023-02-28T12:50:33;19.30;;;13.35;;
33367;SDS011;19724;51.114;13.906;2023-02-28T12:53:09;20.58;;;14.32;;
33367;SDS011;19724;51.114;13.906;2023-02-28T12:58:44;21.27;;;15.07;;
33367;SDS011;19724;51.114;13.906;2023-02-28T13:07:18;20.83;;;13.40;;
33367;SDS011;19724;51.114;13.906;2023-02-28T13:10:06;20.15;;;14.18;;
33367;SDS011;19724;51.114;13.906;2023-02-28T13:12:34;21.42;;;14.95;;
33367;SDS011;19724;51.114;13.906;2023-02-28T13:15:22;19.83;;;14.48;;
33367;SDS011;19724;51.114;13.906;2023-02-28T13:17:49;18.67;;;13.93;;
33367;SDS011;19724;51.114;13.906;2023-02-28T13:20:25;24.92;;;14.40;;
33367;SDS011;19724;51.114;13.906;2023-02-28T13:22:54;17.08;;;13.63;;
33367;SDS011;19724;51.114;13.906;2023-02-28T13:27:46;22.00;;;13.45;;
33367;SDS011;19724;51.114;13.906;2023-02-28T13:33:30;18.90;;;13.55;;
33367;SDS011;19724;51.114;13.906;2023-02-28T13:36:24;20.38;;;13.43;;
33367;SDS011;19724;51.114;13.906;2023-02-28T13:49:25;24.30;;;15.02;;
33367;SDS011;19724;51.114;13.906;2023-02-28T14:00:52;23.80;;;16.17;;
33367;SDS011;19724;51.114;13.906;2023-02-28T14:03:42;19.52;;;14.13;;
33367;SDS011;19724;51.114;13.906;2023-02-28T14:06:26;18.38;;;13.48;;
33367;SDS011;19724;51.114;13.906;2023-02-28T14:11:39;19.30;;;12.65;;
33367;SDS011;19724;51.114;13.906;2023-02-28T14:14:07;20.80;;;14.30;;
33367;SDS011;19724;51.114;13.906;2023-02-28T14:16:40;19.85;;;13.32;;
33367;SDS011;19724;51.114;13.906;2023-02-28T14:19:24;20.38;;;13.52;;
33367;SDS011;19724;51.114;13.906;2023-02-28T14:32:51;19.52;;;12.60;;
33367;SDS011;19724;51.114;13.906;2023-02-28T14:38:19;30.27;;;14.75;;
33367;SDS011;19724;51.114;13.906;2023-02-28T14:40:51;31.88;;;15.40;;
33367;SDS011;19724;51.114;13.906;2023-02-28T14:43:22;19.98;;;14.27;;
33367;SDS011;19724;51.114;13.906;2023-02-28T14:45:50;18.58;;;13.00;;
33367;SDS011;19724;51.114;13.906;2023-02-28T14:48:19;20.77;;;12.70;;
33367;SDS011;19724;51.114;13.906;2023-02-28T14:50:49;22.08;;;14.70;;
33367;SDS011;19724;51.114;13.906;2023-02-28T14:53:18;19.45;;;13.95;;
33367;SDS011;19724;51.114;13.906;2023-02-28T14:55:46;21.73;;;13.98;;
33367;SDS011;19724;51.114;13.906;2023-02-28T14:58:22;22.90;;;15.43;;
33367;SDS011;19724;51.114;13.906;2023-02-28T15:00:51;23.77;;;13.35;;
33367;SDS011;19724;51.114;13.906;2023-02-28T15:03:23;20.45;;;13.32;;
33367;SDS011;19724;51.114;13.906;2023-02-28T15:05:56;21.88;;;14.07;;
33367;SDS011;19724;51.114;13.906;2023-02-28T15:08:23;23.17;;;14.30;;
33367;SDS011;19724;51.114;13.906;2023-02-28T15:10:54;20.85;;;14.38;;
33367;SDS011;19724;51.114;13.906;2023-02-28T15:13:22;22.90;;;14.50;;
33367;SDS011;19724;51.114;13.906;2023-02-28T15:16:01;20.08;;;14.77;;
33367;SDS011;19724;51.114;13.906;2023-02-28T15:18:46;23.65;;;14.23;;
33367;SDS011;19724;51.114;13.906;2023-02-28T15:21:15;21.27;;;14.07;;
33367;SDS011;19724;51.114;13.906;2023-02-28T15:23:44;21.33;;;14.82;;
33367;SDS011;19724;51.114;13.906;2023-02-28T15:26:41;24.27;;;14.73;;
33367;SDS011;19724;51.114;13.906;2023-02-28T15:29:17;21.02;;;14.48;;
33367;SDS011;19724;51.114;13.906;2023-02-28T15:31:50;22.60;;;15.10;;
33367;SDS011;19724;51.114;13.906;2023-02-28T15:34:22;19.48;;;13.98;;
33367;SDS011;19724;51.114;13.906;2023-02-28T15:36:53;20.35;;;14.73;;
33367;SDS011;19724;51.114;13.906;2023-02-28T15:39:23;19.00;;;13.13;;
33367;SDS011;19724;51.114;13.906;2023-02-28T15:41:51;24.17;;;14.27;;
33367;SDS011;19724;51.114;13.906;2023-02-28T15:44:34;23.35;;;15.57;;
33367;SDS011;19724;51.114;13.906;2023-02-28T15:47:04;19.73;;;14.25;;
33367;SDS011;19724;51.114;13.906;2023-02-28T15:49:49;20.10;;;13.65;;
33367;SDS011;19724;51.114;13.906;2023-02-28T15:52:27;25.73;;;15.82;;
33367;SDS011;19724;51.114;13.906;2023-02-28T15:54:58;20.58;;;14.80;;
33367;SDS011;19724;51.114;13.906;2023-02-28T15:57:31;25.42;;;14.82;;
33367;SDS011;19724;51.114;13.906;2023-02-28T15:59:58;22.27;;;15.63;;
33367;SDS011;19724;51.114;13.906;2023-02-28T16:05:19;28.88;;;15.45;;
33367;SDS011;19724;51.114;13.906;2023-02-28T16:07:43;21.00;;;13.18;;
33367;SDS011;19724;51.114;13.906;2023-02-28T16:10:10;22.23;;;14.63;;
33367;SDS011;19724;51.114;13.906;2023-02-28T16:12:39;18.50;;;14.32;;
33367;SDS011;19724;51.114;13.906;2023-02-28T16:15:09;23.90;;;14.93;;
33367;SDS011;19724;51.114;13.906;2023-02-28T16:17:44;29.48;;;15.38;;
33367;SDS011;19724;51.114;13.906;2023-02-28T16:20:12;29.65;;;16.27;;
33367;SDS011;19724;51.114;13.906;2023-02-28T16:22:45;32.22;;;15.88;;
33367;SDS011;19724;51.114;13.906;2023-02-28T16:25:14;23.33;;;16.17;;